sensor_id;sensor_type;location;lat;lon;timestamp;temperature;humidity
76613;DHT22;65507;48.454;-2.058;2023-09-19T00:00:23;15.20;74.20
76613;DHT22;65507;48.454;-2.058;2023-09-19T00:02:52;15.20;74.10
76613;DHT22;65507;48.454;-2.058;2023-09-19T00:05:18;15.20;74.10
76613;DHT22;65507;48.454;-2.058;2023-09-19T00:07:44;15.20;74.20
76613;DHT22;65507;48.454;-2.058;2023-09-19T00:10:10;15.20;74.20
76613;DHT22;65507;48.454;-2.058;2023-09-19T00:12:35;15.20;74.10
76613;DHT22;65507;48.454;-2.058;2023-09-19T00:15:01;15.20;74.10
76613;DHT22;65507;48.454;-2.058;2023-09-19T00:17:30;15.20;74.10
76613;DHT22;65507;48.454;-2.058;2023-09-19T00:19:57;15.20;74.20
76613;DHT22;65507;48.454;-2.058;2023-09-19T00:22:22;15.20;74.20
76613;DHT22;65507;48.454;-2.058;2023-09-19T00:24:51;15.20;74.30
76613;DHT22;65507;48.454;-2.058;2023-09-19T00:27:17;15.20;74.20
76613;DHT22;65507;48.454;-2.058;2023-09-19T00:29:43;15.20;74.20
76613;DHT22;65507;48.454;-2.058;2023-09-19T00:32:09;15.20;74.30
76613;DHT22;65507;48.454;-2.058;2023-09-19T00:34:35;15.30;74.30
76613;DHT22;65507;48.454;-2.058;2023-09-19T00:37:01;15.30;74.20
76613;DHT22;65507;48.454;-2.058;2023-09-19T00:39:26;15.30;74.30
76613;DHT22;65507;48.454;-2.058;2023-09-19T00:41:56;15.30;74.00
76613;DHT22;65507;48.454;-2.058;2023-09-19T00:44:22;15.30;73.90
76613;DHT22;65507;48.454;-2.058;2023-09-19T00:46:48;15.30;73.90
76613;DHT22;65507;48.454;-2.058;2023-09-19T00:49:15;15.30;73.80
76613;DHT22;65507;48.454;-2.058;2023-09-19T00:51:41;15.40;73.90
76613;DHT22;65507;48.454;-2.058;2023-09-19T00:54:11;15.40;74.00
76613;DHT22;65507;48.454;-2.058;2023-09-19T00:56:38;15.40;73.80
76613;DHT22;65507;48.454;-2.058;2023-09-19T00:59:05;15.40;73.90
76613;DHT22;65507;48.454;-2.058;2023-09-19T01:01:31;15.40;74.00
76613;DHT22;65507;48.454;-2.058;2023-09-19T01:03:57;15.40;74.00
76613;DHT22;65507;48.454;-2.058;2023-09-19T01:06:23;15.40;74.20
76613;DHT22;65507;48.454;-2.058;2023-09-19T01:08:49;15.40;73.80
76613;DHT22;65507;48.454;-2.058;2023-09-19T01:13:48;15.40;73.80
76613;DHT22;65507;48.454;-2.058;2023-09-19T01:31:31;15.40;73.80
76613;DHT22;65507;48.454;-2.058;2023-09-19T01:34:01;15.40;73.80
76613;DHT22;65507;48.454;-2.058;2023-09-19T01:36:30;15.40;73.80
76613;DHT22;65507;48.454;-2.058;2023-09-19T01:38:57;15.40;73.80
76613;DHT22;65507;48.454;-2.058;2023-09-19T01:41:26;15.40;73.80
76613;DHT22;65507;48.454;-2.058;2023-09-19T01:43:55;15.40;73.90
76613;DHT22;65507;48.454;-2.058;2023-09-19T01:46:24;15.40;73.80
76613;DHT22;65507;48.454;-2.058;2023-09-19T01:51:21;15.40;73.80
76613;DHT22;65507;48.454;-2.058;2023-09-19T01:53:55;15.40;73.80
76613;DHT22;65507;48.454;-2.058;2023-09-19T01:56:28;15.40;73.80
76613;DHT22;65507;48.454;-2.058;2023-09-19T01:58:59;15.40;73.80
76613;DHT22;65507;48.454;-2.058;2023-09-19T02:01:29;15.40;73.80
76613;DHT22;65507;48.454;-2.058;2023-09-19T02:03:55;15.50;73.80
76613;DHT22;65507;48.454;-2.058;2023-09-19T02:06:21;15.40;73.80
76613;DHT22;65507;48.454;-2.058;2023-09-19T02:08:47;15.50;74.00
76613;DHT22;65507;48.454;-2.058;2023-09-19T02:11:13;15.50;74.00
76613;DHT22;65507;48.454;-2.058;2023-09-19T02:13:38;15.40;74.00
76613;DHT22;65507;48.454;-2.058;2023-09-19T02:16:04;15.50;74.00
76613;DHT22;65507;48.454;-2.058;2023-09-19T02:18:30;15.40;74.10
76613;DHT22;65507;48.454;-2.058;2023-09-19T02:20:56;15.40;74.10
76613;DHT22;65507;48.454;-2.058;2023-09-19T02:23:23;15.40;73.90
76613;DHT22;65507;48.454;-2.058;2023-09-19T02:25:54;15.40;74.00
76613;DHT22;65507;48.454;-2.058;2023-09-19T02:28:23;15.40;74.00
76613;DHT22;65507;48.454;-2.058;2023-09-19T02:30:49;15.40;74.00
76613;DHT22;65507;48.454;-2.058;2023-09-19T02:33:15;15.40;74.10
76613;DHT22;65507;48.454;-2.058;2023-09-19T02:35:42;15.40;74.00
76613;DHT22;65507;48.454;-2.058;2023-09-19T02:38:08;15.40;74.10
76613;DHT22;65507;48.454;-2.058;2023-09-19T02:40:36;15.40;74.10
76613;DHT22;65507;48.454;-2.058;2023-09-19T02:43:02;15.40;74.10
76613;DHT22;65507;48.454;-2.058;2023-09-19T02:45:28;15.40;74.20
76613;DHT22;65507;48.454;-2.058;2023-09-19T02:47:55;15.30;74.20
76613;DHT22;65507;48.454;-2.058;2023-09-19T02:50:20;15.30;74.10
76613;DHT22;65507;48.454;-2.058;2023-09-19T02:52:46;15.40;74.20
76613;DHT22;65507;48.454;-2.058;2023-09-19T02:55:15;15.30;75.10
76613;DHT22;65507;48.454;-2.058;2023-09-19T02:57:47;15.40;74.20
76613;DHT22;65507;48.454;-2.058;2023-09-19T03:00:13;15.30;74.10
76613;DHT22;65507;48.454;-2.058;2023-09-19T03:02:39;15.30;74.10
76613;DHT22;65507;48.454;-2.058;2023-09-19T03:05:06;15.30;74.20
76613;DHT22;65507;48.454;-2.058;2023-09-19T03:07:32;15.30;74.20
76613;DHT22;65507;48.454;-2.058;2023-09-19T03:09:59;15.30;74.20
76613;DHT22;65507;48.454;-2.058;2023-09-19T03:12:25;15.30;74.20
76613;DHT22;65507;48.454;-2.058;2023-09-19T03:14:51;15.30;74.20
76613;DHT22;65507;48.454;-2.058;2023-09-19T03:17:17;15.30;74.30
76613;DHT22;65507;48.454;-2.058;2023-09-19T03:19:45;15.30;74.30
76613;DHT22;65507;48.454;-2.058;2023-09-19T03:22:10;15.30;74.30
76613;DHT22;65507;48.454;-2.058;2023-09-19T03:24:36;15.30;74.30
76613;DHT22;65507;48.454;-2.058;2023-09-19T03:27:03;15.30;74.30
76613;DHT22;65507;48.454;-2.058;2023-09-19T03:29:28;15.30;74.40
76613;DHT22;65507;48.454;-2.058;2023-09-19T03:31:54;15.30;74.40
76613;DHT22;65507;48.454;-2.058;2023-09-19T03:34:20;15.30;74.40
76613;DHT22;65507;48.454;-2.058;2023-09-19T03:36:46;15.30;74.40
76613;DHT22;65507;48.454;-2.058;2023-09-19T03:39:11;15.30;74.40
76613;DHT22;65507;48.454;-2.058;2023-09-19T03:41:37;15.30;74.30
76613;DHT22;65507;48.454;-2.058;2023-09-19T03:44:02;15.30;74.20
76613;DHT22;65507;48.454;-2.058;2023-09-19T03:46:28;15.30;74.20
76613;DHT22;65507;48.454;-2.058;2023-09-19T03:48:54;15.30;74.30
76613;DHT22;65507;48.454;-2.058;2023-09-19T03:51:20;15.30;74.20
76613;DHT22;65507;48.454;-2.058;2023-09-19T03:53:45;15.40;74.30
76613;DHT22;65507;48.454;-2.058;2023-09-19T03:56:11;15.40;74.40
76613;DHT22;65507;48.454;-2.058;2023-09-19T03:58:37;15.40;74.20
76613;DHT22;65507;48.454;-2.058;2023-09-19T04:01:05;15.40;74.20
76613;DHT22;65507;48.454;-2.058;2023-09-19T04:03:35;15.40;74.10
76613;DHT22;65507;48.454;-2.058;2023-09-19T04:06:14;15.50;74.10
76613;DHT22;65507;48.454;-2.058;2023-09-19T04:08:40;15.50;74.00
76613;DHT22;65507;48.454;-2.058;2023-09-19T04:11:05;15.50;74.00
76613;DHT22;65507;48.454;-2.058;2023-09-19T04:13:31;15.50;74.00
76613;DHT22;65507;48.454;-2.058;2023-09-19T04:15:57;15.50;74.00
76613;DHT22;65507;48.454;-2.058;2023-09-19T04:18:22;15.50;74.00
76613;DHT22;65507;48.454;-2.058;2023-09-19T04:20:49;15.50;74.00
76613;DHT22;65507;48.454;-2.058;2023-09-19T04:23:15;15.50;74.00
76613;DHT22;65507;48.454;-2.058;2023-09-19T04:25:41;15.50;74.10
76613;DHT22;65507;48.454;-2.058;2023-09-19T04:28:06;15.50;74.10
76613;DHT22;65507;48.454;-2.058;2023-09-19T04:30:32;15.50;74.10
76613;DHT22;65507;48.454;-2.058;2023-09-19T04:32:57;15.50;74.20
76613;DHT22;65507;48.454;-2.058;2023-09-19T04:35:23;15.50;74.20
76613;DHT22;65507;48.454;-2.058;2023-09-19T04:37:48;15.50;74.30
76613;DHT22;65507;48.454;-2.058;2023-09-19T04:40:15;15.40;74.20
76613;DHT22;65507;48.454;-2.058;2023-09-19T04:42:43;15.40;74.40
76613;DHT22;65507;48.454;-2.058;2023-09-19T04:45:08;15.40;74.40
76613;DHT22;65507;48.454;-2.058;2023-09-19T04:47:35;15.40;74.30
76613;DHT22;65507;48.454;-2.058;2023-09-19T04:50:01;15.40;74.40
76613;DHT22;65507;48.454;-2.058;2023-09-19T04:52:26;15.40;74.50
76613;DHT22;65507;48.454;-2.058;2023-09-19T04:54:52;15.40;74.50
76613;DHT22;65507;48.454;-2.058;2023-09-19T04:57:18;15.40;74.50
76613;DHT22;65507;48.454;-2.058;2023-09-19T04:59:43;15.40;74.50
76613;DHT22;65507;48.454;-2.058;2023-09-19T05:02:08;15.40;74.50
76613;DHT22;65507;48.454;-2.058;2023-09-19T05:04:34;15.30;74.40
76613;DHT22;65507;48.454;-2.058;2023-09-19T05:07:00;15.40;74.50
76613;DHT22;65507;48.454;-2.058;2023-09-19T05:09:28;15.30;74.50
76613;DHT22;65507;48.454;-2.058;2023-09-19T05:11:54;15.30;74.60
76613;DHT22;65507;48.454;-2.058;2023-09-19T05:14:19;15.30;74.60
76613;DHT22;65507;48.454;-2.058;2023-09-19T05:16:46;15.30;74.60
76613;DHT22;65507;48.454;-2.058;2023-09-19T05:19:12;17.60;75.80
76613;DHT22;65507;48.454;-2.058;2023-09-19T05:21:37;15.30;74.60
76613;DHT22;65507;48.454;-2.058;2023-09-19T05:24:06;15.30;74.60
76613;DHT22;65507;48.454;-2.058;2023-09-19T05:26:32;15.30;74.50
76613;DHT22;65507;48.454;-2.058;2023-09-19T05:28:57;15.40;74.50
76613;DHT22;65507;48.454;-2.058;2023-09-19T05:31:23;15.40;74.40
76613;DHT22;65507;48.454;-2.058;2023-09-19T05:33:49;15.40;74.30
76613;DHT22;65507;48.454;-2.058;2023-09-19T05:36:15;15.50;74.30
76613;DHT22;65507;48.454;-2.058;2023-09-19T05:38:41;15.50;74.20
76613;DHT22;65507;48.454;-2.058;2023-09-19T05:41:07;15.50;74.20
76613;DHT22;65507;48.454;-2.058;2023-09-19T05:43:34;15.60;74.10
76613;DHT22;65507;48.454;-2.058;2023-09-19T05:46:02;15.60;74.00
76613;DHT22;65507;48.454;-2.058;2023-09-19T05:48:28;13.80;73.00
76613;DHT22;65507;48.454;-2.058;2023-09-19T05:50:54;15.70;74.20
76613;DHT22;65507;48.454;-2.058;2023-09-19T05:53:19;15.70;74.10
76613;DHT22;65507;48.454;-2.058;2023-09-19T05:55:45;15.70;74.20
76613;DHT22;65507;48.454;-2.058;2023-09-19T05:58:11;15.70;74.10
76613;DHT22;65507;48.454;-2.058;2023-09-19T06:00:39;15.70;74.00
76613;DHT22;65507;48.454;-2.058;2023-09-19T06:03:07;15.80;74.00
76613;DHT22;65507;48.454;-2.058;2023-09-19T06:05:33;15.80;74.20
76613;DHT22;65507;48.454;-2.058;2023-09-19T06:07:59;15.70;74.10
76613;DHT22;65507;48.454;-2.058;2023-09-19T06:10:33;15.80;74.10
76613;DHT22;65507;48.454;-2.058;2023-09-19T06:12:59;15.80;74.00
76613;DHT22;65507;48.454;-2.058;2023-09-19T06:15:25;15.70;74.00
76613;DHT22;65507;48.454;-2.058;2023-09-19T06:17:52;15.80;74.10
76613;DHT22;65507;48.454;-2.058;2023-09-19T06:20:21;15.80;74.10
76613;DHT22;65507;48.454;-2.058;2023-09-19T06:22:47;15.80;74.10
76613;DHT22;65507;48.454;-2.058;2023-09-19T06:25:13;15.80;74.10
76613;DHT22;65507;48.454;-2.058;2023-09-19T06:27:48;15.80;74.00
76613;DHT22;65507;48.454;-2.058;2023-09-19T06:30:14;15.80;74.00
76613;DHT22;65507;48.454;-2.058;2023-09-19T06:32:40;15.90;74.00
76613;DHT22;65507;48.454;-2.058;2023-09-19T06:35:13;15.90;74.00
76613;DHT22;65507;48.454;-2.058;2023-09-19T06:37:39;15.90;73.90
76613;DHT22;65507;48.454;-2.058;2023-09-19T06:40:06;16.00;74.00
76613;DHT22;65507;48.454;-2.058;2023-09-19T06:42:31;16.00;73.90
76613;DHT22;65507;48.454;-2.058;2023-09-19T06:44:58;16.00;73.80
76613;DHT22;65507;48.454;-2.058;2023-09-19T06:47:23;16.10;73.70
76613;DHT22;65507;48.454;-2.058;2023-09-19T06:49:51;16.20;73.70
76613;DHT22;65507;48.454;-2.058;2023-09-19T06:52:17;16.20;74.50
76613;DHT22;65507;48.454;-2.058;2023-09-19T06:54:46;16.30;73.70
76613;DHT22;65507;48.454;-2.058;2023-09-19T06:57:12;16.30;73.50
76613;DHT22;65507;48.454;-2.058;2023-09-19T06:59:39;16.40;73.50
76613;DHT22;65507;48.454;-2.058;2023-09-19T07:02:05;16.40;73.40
76613;DHT22;65507;48.454;-2.058;2023-09-19T07:04:31;16.50;73.60
76613;DHT22;65507;48.454;-2.058;2023-09-19T07:06:57;16.50;73.50
76613;DHT22;65507;48.454;-2.058;2023-09-19T07:09:23;17.20;73.70
76613;DHT22;65507;48.454;-2.058;2023-09-19T07:11:49;16.50;73.40
76613;DHT22;65507;48.454;-2.058;2023-09-19T07:14:16;16.60;73.50
76613;DHT22;65507;48.454;-2.058;2023-09-19T07:16:41;16.60;73.30
76613;DHT22;65507;48.454;-2.058;2023-09-19T07:19:09;16.70;74.20
76613;DHT22;65507;48.454;-2.058;2023-09-19T07:21:35;16.80;73.20
76613;DHT22;65507;48.454;-2.058;2023-09-19T07:24:00;16.90;73.00
76613;DHT22;65507;48.454;-2.058;2023-09-19T07:26:27;17.00;73.10
76613;DHT22;65507;48.454;-2.058;2023-09-19T07:28:53;17.10;72.70
76613;DHT22;65507;48.454;-2.058;2023-09-19T07:31:19;17.30;72.40
76613;DHT22;65507;48.454;-2.058;2023-09-19T07:33:44;17.50;72.20
76613;DHT22;65507;48.454;-2.058;2023-09-19T07:36:10;17.70;71.90
76613;DHT22;65507;48.454;-2.058;2023-09-19T07:38:39;17.90;71.50
76613;DHT22;65507;48.454;-2.058;2023-09-19T07:41:04;18.00;71.20
76613;DHT22;65507;48.454;-2.058;2023-09-19T07:43:30;18.10;71.30
76613;DHT22;65507;48.454;-2.058;2023-09-19T07:45:56;18.20;71.40
76613;DHT22;65507;48.454;-2.058;2023-09-19T07:48:22;18.30;71.50
76613;DHT22;65507;48.454;-2.058;2023-09-19T07:50:49;18.30;71.40
76613;DHT22;65507;48.454;-2.058;2023-09-19T07:53:15;18.40;71.40
76613;DHT22;65507;48.454;-2.058;2023-09-19T07:55:43;18.40;71.40
76613;DHT22;65507;48.454;-2.058;2023-09-19T07:58:09;18.50;71.60
76613;DHT22;65507;48.454;-2.058;2023-09-19T08:00:34;18.60;71.60
76613;DHT22;65507;48.454;-2.058;2023-09-19T08:03:00;18.60;71.60
76613;DHT22;65507;48.454;-2.058;2023-09-19T08:05:26;18.70;71.40
76613;DHT22;65507;48.454;-2.058;2023-09-19T08:07:51;18.70;71.40
76613;DHT22;65507;48.454;-2.058;2023-09-19T08:10:18;18.80;71.50
76613;DHT22;65507;48.454;-2.058;2023-09-19T08:12:45;18.80;71.50
76613;DHT22;65507;48.454;-2.058;2023-09-19T08:15:14;18.90;71.40
76613;DHT22;65507;48.454;-2.058;2023-09-19T08:17:40;19.00;71.20
76613;DHT22;65507;48.454;-2.058;2023-09-19T08:20:06;19.00;71.10
76613;DHT22;65507;48.454;-2.058;2023-09-19T08:22:32;19.20;71.00
76613;DHT22;65507;48.454;-2.058;2023-09-19T08:24:58;19.30;70.80
76613;DHT22;65507;48.454;-2.058;2023-09-19T08:27:23;19.40;70.60
76613;DHT22;65507;48.454;-2.058;2023-09-19T08:29:52;19.50;70.50
76613;DHT22;65507;48.454;-2.058;2023-09-19T08:32:18;19.60;70.50
76613;DHT22;65507;48.454;-2.058;2023-09-19T08:34:49;19.60;70.40
76613;DHT22;65507;48.454;-2.058;2023-09-19T08:37:14;19.70;70.40
76613;DHT22;65507;48.454;-2.058;2023-09-19T08:39:41;19.80;70.40
76613;DHT22;65507;48.454;-2.058;2023-09-19T08:42:06;19.90;70.40
76613;DHT22;65507;48.454;-2.058;2023-09-19T08:44:35;20.00;71.20
76613;DHT22;65507;48.454;-2.058;2023-09-19T08:47:19;20.00;70.10
76613;DHT22;65507;48.454;-2.058;2023-09-19T08:50:03;20.10;69.90
76613;DHT22;65507;48.454;-2.058;2023-09-19T08:52:36;20.30;69.90
76613;DHT22;65507;48.454;-2.058;2023-09-19T08:55:05;20.30;69.70
76613;DHT22;65507;48.454;-2.058;2023-09-19T08:57:35;20.40;69.70
76613;DHT22;65507;48.454;-2.058;2023-09-19T09:00:04;20.50;69.80
76613;DHT22;65507;48.454;-2.058;2023-09-19T09:02:39;20.50;69.70
76613;DHT22;65507;48.454;-2.058;2023-09-19T09:05:07;20.50;69.70
76613;DHT22;65507;48.454;-2.058;2023-09-19T09:07:35;20.50;69.80
76613;DHT22;65507;48.454;-2.058;2023-09-19T09:10:02;20.50;69.90
76613;DHT22;65507;48.454;-2.058;2023-09-19T09:12:28;20.60;70.00
76613;DHT22;65507;48.454;-2.058;2023-09-19T09:14:54;20.70;70.00
76613;DHT22;65507;48.454;-2.058;2023-09-19T09:17:22;20.70;69.90
76613;DHT22;65507;48.454;-2.058;2023-09-19T09:19:47;20.70;69.90
76613;DHT22;65507;48.454;-2.058;2023-09-19T09:22:13;20.80;69.90
76613;DHT22;65507;48.454;-2.058;2023-09-19T09:24:52;20.90;69.90
76613;DHT22;65507;48.454;-2.058;2023-09-19T09:27:19;21.10;69.40
76613;DHT22;65507;48.454;-2.058;2023-09-19T09:29:46;21.20;69.30
76613;DHT22;65507;48.454;-2.058;2023-09-19T09:32:16;21.30;69.00
76613;DHT22;65507;48.454;-2.058;2023-09-19T09:34:43;21.40;68.80
76613;DHT22;65507;48.454;-2.058;2023-09-19T09:37:13;21.40;68.80
76613;DHT22;65507;48.454;-2.058;2023-09-19T09:39:40;21.50;69.00
76613;DHT22;65507;48.454;-2.058;2023-09-19T09:42:05;21.60;68.90
76613;DHT22;65507;48.454;-2.058;2023-09-19T09:44:35;21.60;68.90
76613;DHT22;65507;48.454;-2.058;2023-09-19T09:47:00;21.70;69.30
76613;DHT22;65507;48.454;-2.058;2023-09-19T09:49:49;21.70;68.70
76613;DHT22;65507;48.454;-2.058;2023-09-19T09:52:33;21.80;68.50
76613;DHT22;65507;48.454;-2.058;2023-09-19T09:55:09;21.80;68.60
76613;DHT22;65507;48.454;-2.058;2023-09-19T09:57:35;21.90;68.90
76613;DHT22;65507;48.454;-2.058;2023-09-19T10:00:01;22.00;68.60
76613;DHT22;65507;48.454;-2.058;2023-09-19T10:02:39;22.00;68.50
76613;DHT22;65507;48.454;-2.058;2023-09-19T10:05:14;22.00;68.60
76613;DHT22;65507;48.454;-2.058;2023-09-19T10:08:10;22.00;68.70
76613;DHT22;65507;48.454;-2.058;2023-09-19T10:10:38;21.90;68.70
76613;DHT22;65507;48.454;-2.058;2023-09-19T10:13:07;21.90;68.80
76613;DHT22;65507;48.454;-2.058;2023-09-19T10:15:37;22.00;68.90
76613;DHT22;65507;48.454;-2.058;2023-09-19T10:18:06;22.00;68.70
76613;DHT22;65507;48.454;-2.058;2023-09-19T10:20:36;22.10;68.70
76613;DHT22;65507;48.454;-2.058;2023-09-19T10:23:05;22.10;68.50
76613;DHT22;65507;48.454;-2.058;2023-09-19T10:25:36;22.10;68.50
76613;DHT22;65507;48.454;-2.058;2023-09-19T10:28:02;22.10;68.70
76613;DHT22;65507;48.454;-2.058;2023-09-19T10:30:29;22.10;68.80
76613;DHT22;65507;48.454;-2.058;2023-09-19T10:33:03;22.00;68.90
76613;DHT22;65507;48.454;-2.058;2023-09-19T10:35:29;22.00;68.90
76613;DHT22;65507;48.454;-2.058;2023-09-19T10:37:59;22.10;69.40
76613;DHT22;65507;48.454;-2.058;2023-09-19T10:40:26;22.00;69.10
76613;DHT22;65507;48.454;-2.058;2023-09-19T10:43:00;22.00;69.50
76613;DHT22;65507;48.454;-2.058;2023-09-19T10:45:27;22.00;69.00
76613;DHT22;65507;48.454;-2.058;2023-09-19T10:47:54;22.00;68.90
76613;DHT22;65507;48.454;-2.058;2023-09-19T10:50:21;22.10;69.00
76613;DHT22;65507;48.454;-2.058;2023-09-19T10:52:47;22.20;68.80
76613;DHT22;65507;48.454;-2.058;2023-09-19T10:55:16;22.30;68.50
76613;DHT22;65507;48.454;-2.058;2023-09-19T10:57:45;22.40;68.20
76613;DHT22;65507;48.454;-2.058;2023-09-19T11:00:12;22.50;67.90
76613;DHT22;65507;48.454;-2.058;2023-09-19T11:05:39;22.60;67.90
76613;DHT22;65507;48.454;-2.058;2023-09-19T11:08:08;22.60;67.90
76613;DHT22;65507;48.454;-2.058;2023-09-19T11:10:47;22.70;67.80
76613;DHT22;65507;48.454;-2.058;2023-09-19T11:13:27;22.70;67.80
76613;DHT22;65507;48.454;-2.058;2023-09-19T11:26:49;22.70;68.00
76613;DHT22;65507;48.454;-2.058;2023-09-19T11:29:24;22.60;68.00
76613;DHT22;65507;48.454;-2.058;2023-09-19T11:31:50;22.60;68.00
76613;DHT22;65507;48.454;-2.058;2023-09-19T11:34:38;22.60;67.90
76613;DHT22;65507;48.454;-2.058;2023-09-19T11:37:03;22.60;67.90
76613;DHT22;65507;48.454;-2.058;2023-09-19T11:39:30;22.70;67.90
76613;DHT22;65507;48.454;-2.058;2023-09-19T11:41:55;22.70;67.70
76613;DHT22;65507;48.454;-2.058;2023-09-19T11:46:52;22.70;67.70
76613;DHT22;65507;48.454;-2.058;2023-09-19T11:49:18;22.70;67.70
76613;DHT22;65507;48.454;-2.058;2023-09-19T11:51:52;22.80;67.70
76613;DHT22;65507;48.454;-2.058;2023-09-19T11:54:17;22.80;67.50
76613;DHT22;65507;48.454;-2.058;2023-09-19T11:56:48;22.80;67.90
76613;DHT22;65507;48.454;-2.058;2023-09-19T11:59:31;22.70;67.60
76613;DHT22;65507;48.454;-2.058;2023-09-19T12:02:03;22.70;67.80
76613;DHT22;65507;48.454;-2.058;2023-09-19T12:04:39;22.60;68.00
76613;DHT22;65507;48.454;-2.058;2023-09-19T12:07:07;22.50;68.20
76613;DHT22;65507;48.454;-2.058;2023-09-19T12:09:39;22.40;68.20
76613;DHT22;65507;48.454;-2.058;2023-09-19T12:12:05;22.50;69.20
76613;DHT22;65507;48.454;-2.058;2023-09-19T12:14:31;22.40;68.10
76613;DHT22;65507;48.454;-2.058;2023-09-19T12:16:57;22.50;68.20
76613;DHT22;65507;48.454;-2.058;2023-09-19T12:19:24;22.50;68.10
76613;DHT22;65507;48.454;-2.058;2023-09-19T12:22:11;22.40;68.00
76613;DHT22;65507;48.454;-2.058;2023-09-19T12:24:36;22.50;68.00
76613;DHT22;65507;48.454;-2.058;2023-09-19T12:27:04;22.60;67.70
76613;DHT22;65507;48.454;-2.058;2023-09-19T12:29:31;22.60;67.60
76613;DHT22;65507;48.454;-2.058;2023-09-19T12:31:57;22.70;67.40
76613;DHT22;65507;48.454;-2.058;2023-09-19T12:39:43;22.90;66.80
76613;DHT22;65507;48.454;-2.058;2023-09-19T12:42:17;23.00;66.80
76613;DHT22;65507;48.454;-2.058;2023-09-19T12:44:44;23.10;66.60
76613;DHT22;65507;48.454;-2.058;2023-09-19T12:47:10;23.20;66.40
76613;DHT22;65507;48.454;-2.058;2023-09-19T12:49:36;23.20;66.50
76613;DHT22;65507;48.454;-2.058;2023-09-19T12:52:01;23.20;66.60
76613;DHT22;65507;48.454;-2.058;2023-09-19T12:54:40;23.30;66.50
76613;DHT22;65507;48.454;-2.058;2023-09-19T12:57:05;23.30;66.30
76613;DHT22;65507;48.454;-2.058;2023-09-19T12:59:31;23.30;66.40
76613;DHT22;65507;48.454;-2.058;2023-09-19T13:02:04;23.30;66.30
76613;DHT22;65507;48.454;-2.058;2023-09-19T13:04:32;23.40;66.30
76613;DHT22;65507;48.454;-2.058;2023-09-19T13:06:59;23.30;66.50
76613;DHT22;65507;48.454;-2.058;2023-09-19T13:09:26;23.30;66.50
76613;DHT22;65507;48.454;-2.058;2023-09-19T13:12:00;23.30;66.40
76613;DHT22;65507;48.454;-2.058;2023-09-19T13:14:28;23.20;66.60
76613;DHT22;65507;48.454;-2.058;2023-09-19T13:19:42;23.10;66.70
76613;DHT22;65507;48.454;-2.058;2023-09-19T13:24:58;23.20;66.50
76613;DHT22;65507;48.454;-2.058;2023-09-19T13:27:24;23.20;66.50
76613;DHT22;65507;48.454;-2.058;2023-09-19T13:29:49;23.20;66.50
76613;DHT22;65507;48.454;-2.058;2023-09-19T13:32:15;23.30;66.50
76613;DHT22;65507;48.454;-2.058;2023-09-19T13:34:41;23.30;66.50
76613;DHT22;65507;48.454;-2.058;2023-09-19T13:37:09;23.40;66.40
76613;DHT22;65507;48.454;-2.058;2023-09-19T13:39:35;23.40;66.10
76613;DHT22;65507;48.454;-2.058;2023-09-19T13:42:01;23.40;66.40
76613;DHT22;65507;48.454;-2.058;2023-09-19T13:44:28;23.30;66.30
76613;DHT22;65507;48.454;-2.058;2023-09-19T13:46:55;23.30;66.60
76613;DHT22;65507;48.454;-2.058;2023-09-19T13:49:25;23.40;66.60
76613;DHT22;65507;48.454;-2.058;2023-09-19T13:51:51;23.30;66.40
76613;DHT22;65507;48.454;-2.058;2023-09-19T13:54:16;23.40;66.90
76613;DHT22;65507;48.454;-2.058;2023-09-19T13:56:42;23.40;66.60
76613;DHT22;65507;48.454;-2.058;2023-09-19T13:59:07;23.40;66.70
76613;DHT22;65507;48.454;-2.058;2023-09-19T14:01:33;23.40;66.60
76613;DHT22;65507;48.454;-2.058;2023-09-19T14:03:58;23.40;66.60
76613;DHT22;65507;48.454;-2.058;2023-09-19T14:06:24;23.30;66.50
76613;DHT22;65507;48.454;-2.058;2023-09-19T14:08:50;23.30;66.60
76613;DHT22;65507;48.454;-2.058;2023-09-19T14:11:16;23.30;66.50
76613;DHT22;65507;48.454;-2.058;2023-09-19T14:13:42;23.30;66.70
76613;DHT22;65507;48.454;-2.058;2023-09-19T14:16:12;23.30;66.50
76613;DHT22;65507;48.454;-2.058;2023-09-19T14:18:38;23.20;66.50
76613;DHT22;65507;48.454;-2.058;2023-09-19T14:21:03;23.20;66.50
76613;DHT22;65507;48.454;-2.058;2023-09-19T14:23:33;23.20;66.40
76613;DHT22;65507;48.454;-2.058;2023-09-19T14:26:00;23.20;66.50
76613;DHT22;65507;48.454;-2.058;2023-09-19T14:28:26;23.10;66.50
76613;DHT22;65507;48.454;-2.058;2023-09-19T14:30:52;23.00;66.70
76613;DHT22;65507;48.454;-2.058;2023-09-19T14:33:17;23.00;66.90
76613;DHT22;65507;48.454;-2.058;2023-09-19T14:35:43;22.90;67.00
76613;DHT22;65507;48.454;-2.058;2023-09-19T14:38:09;22.90;67.60
76613;DHT22;65507;48.454;-2.058;2023-09-19T14:40:34;22.90;67.20
76613;DHT22;65507;48.454;-2.058;2023-09-19T14:43:01;22.90;67.30
76613;DHT22;65507;48.454;-2.058;2023-09-19T14:45:27;22.90;67.10
76613;DHT22;65507;48.454;-2.058;2023-09-19T14:47:53;22.80;67.40
76613;DHT22;65507;48.454;-2.058;2023-09-19T14:50:21;22.80;66.80
76613;DHT22;65507;48.454;-2.058;2023-09-19T14:52:47;22.70;67.00
76613;DHT22;65507;48.454;-2.058;2023-09-19T14:55:14;22.60;67.30
76613;DHT22;65507;48.454;-2.058;2023-09-19T14:57:41;22.50;67.30
76613;DHT22;65507;48.454;-2.058;2023-09-19T15:00:07;22.50;67.10
76613;DHT22;65507;48.454;-2.058;2023-09-19T15:02:37;22.40;67.50
76613;DHT22;65507;48.454;-2.058;2023-09-19T15:05:04;22.40;67.30
76613;DHT22;65507;48.454;-2.058;2023-09-19T15:07:29;22.40;67.30
76613;DHT22;65507;48.454;-2.058;2023-09-19T15:09:55;22.40;67.30
76613;DHT22;65507;48.454;-2.058;2023-09-19T15:12:20;22.40;67.10
76613;DHT22;65507;48.454;-2.058;2023-09-19T15:14:46;22.40;67.10
76613;DHT22;65507;48.454;-2.058;2023-09-19T15:17:11;22.40;67.00
76613;DHT22;65507;48.454;-2.058;2023-09-19T15:19:37;22.40;66.80
76613;DHT22;65507;48.454;-2.058;2023-09-19T15:22:03;22.40;66.90
76613;DHT22;65507;48.454;-2.058;2023-09-19T15:24:29;22.40;66.80
76613;DHT22;65507;48.454;-2.058;2023-09-19T15:26:54;22.40;66.90
76613;DHT22;65507;48.454;-2.058;2023-09-19T15:29:20;22.40;67.10
76613;DHT22;65507;48.454;-2.058;2023-09-19T15:31:46;22.40;67.10
76613;DHT22;65507;48.454;-2.058;2023-09-19T15:34:11;22.40;67.10
76613;DHT22;65507;48.454;-2.058;2023-09-19T15:36:41;22.40;67.00
76613;DHT22;65507;48.454;-2.058;2023-09-19T15:39:07;22.30;67.00
76613;DHT22;65507;48.454;-2.058;2023-09-19T15:41:36;22.30;67.00
76613;DHT22;65507;48.454;-2.058;2023-09-19T15:44:15;22.20;67.20
76613;DHT22;65507;48.454;-2.058;2023-09-19T15:46:41;22.20;67.20
76613;DHT22;65507;48.454;-2.058;2023-09-19T15:49:06;22.10;67.20
76613;DHT22;65507;48.454;-2.058;2023-09-19T15:51:33;22.10;67.50
76613;DHT22;65507;48.454;-2.058;2023-09-19T15:53:59;22.10;67.30
76613;DHT22;65507;48.454;-2.058;2023-09-19T15:56:27;22.00;67.40
76613;DHT22;65507;48.454;-2.058;2023-09-19T15:58:53;22.00;67.40
76613;DHT22;65507;48.454;-2.058;2023-09-19T16:01:20;21.90;67.50
76613;DHT22;65507;48.454;-2.058;2023-09-19T16:03:47;21.80;67.80